Time;durP1;ratioP1;P1;durP2;ratioP2;P2;SDS_P1;SDS_P2;PMS_P1;PMS_P2;Temp;Humidity;BMP_temperature;BMP_pressure;BME280_temperature;BME280_humidity;BME280_pressure;Samples;Min_cycle;Max_cycle;Signal;HPM_P1;HPM_P2
2021/06/13 00:01:19;;;;;;;;;;;19.40;56.20;;;;;;491239;241;1246;-45
2021/06/13 00:03:20;;;;;;;;;;;19.40;56.20;;;;;;491429;241;1287;-44
2021/06/13 00:05:21;;;;;;;;;;;19.40;56.20;;;;;;491585;241;1032;-44
2021/06/13 00:07:22;;;;;;;;;;;19.40;56.20;;;;;;491300;241;1498;-45
2021/06/13 00:09:24;;;;;;;;;;;19.40;56.20;;;;;;491504;241;1092;-45
2021/06/13 00:11:25;;;;;;;;;;;19.40;56.30;;;;;;491453;241;1467;-45
2021/06/13 00:13:26;;;;;;;;;;;19.40;56.20;;;;;;491849;241;2180;-45
2021/06/13 00:15:27;;;;;;;;;;;19.40;56.20;;;;;;491809;241;1065;-45
2021/06/13 00:17:29;;;;;;;;;;;19.40;56.20;;;;;;491225;241;1152;-45
2021/06/13 00:19:30;;;;;;;;;;;19.50;56.10;;;;;;491796;241;1189;-45
2021/06/13 00:21:31;;;;;;;;;;;19.50;56.10;;;;;;491739;241;1290;-44
2021/06/13 00:23:33;;;;;;;;;;;19.50;56.20;;;;;;491389;241;1131;-45
2021/06/13 00:25:34;;;;;;;;;;;19.40;56.20;;;;;;491596;241;1089;-45
2021/06/13 00:27:35;;;;;;;;;;;19.40;56.10;;;;;;491348;241;1193;-45
2021/06/13 00:29:36;;;;;;;;;;;19.40;56.20;;;;;;491388;241;1038;-45
2021/06/13 00:31:38;;;;;;;;;;;19.50;56.20;;;;;;491737;241;1211;-45
2021/06/13 00:33:39;;;;;;;;;;;19.40;56.10;;;;;;491770;241;2187;-45
2021/06/13 00:35:40;;;;;;;;;;;19.50;56.20;;;;;;491787;241;1143;-45
2021/06/13 00:37:42;;;;;;;;;;;19.40;56.20;;;;;;491547;241;1161;-45
2021/06/13 00:39:43;;;;;;;;;;;19.40;56.20;;;;;;491830;241;1023;-45
2021/06/13 00:41:44;;;;;;;;;;;19.40;56.20;;;;;;491350;241;1248;-45
2021/06/13 00:43:45;;;;;;;;;;;19.40;56.20;;;;;;491792;241;981;-45
2021/06/13 00:45:47;;;;;;;;;;;19.40;56.20;;;;;;491671;241;1040;-45
2021/06/13 00:47:48;;;;;;;;;;;19.40;56.20;;;;;;491533;241;1026;-45
2021/06/13 00:49:49;;;;;;;;;;;19.40;56.20;;;;;;491361;241;1079;-45
2021/06/13 00:51:51;;;;;;;;;;;19.40;56.20;;;;;;491760;241;1063;-45
2021/06/13 00:53:52;;;;;;;;;;;19.40;56.30;;;;;;491410;241;2145;-45
2021/06/13 00:55:53;;;;;;;;;;;19.40;56.20;;;;;;491346;241;1034;-45
2021/06/13 00:57:54;;;;;;;;;;;19.40;56.20;;;;;;491352;241;1225;-45
2021/06/13 00:59:56;;;;;;;;;;;19.40;56.20;;;;;;491471;241;1050;-45
2021/06/13 01:01:57;;;;;;;;;;;19.40;56.30;;;;;;491279;241;1240;-45
2021/06/13 01:03:58;;;;;;;;;;;19.40;56.30;;;;;;491817;241;1037;-44
2021/06/13 01:05:59;;;;;;;;;;;19.40;56.30;;;;;;491305;241;1067;-45
2021/06/13 01:08:01;;;;;;;;;;;19.40;56.20;;;;;;491480;241;1140;-45
2021/06/13 01:10:02;;;;;;;;;;;19.40;56.30;;;;;;491397;241;1048;-45
2021/06/13 01:12:03;;;;;;;;;;;19.40;56.20;;;;;;491311;241;1142;-45
2021/06/13 01:14:04;;;;;;;;;;;19.40;56.20;;;;;;491831;241;2203;-45
2021/06/13 01:16:06;;;;;;;;;;;19.40;56.20;;;;;;491317;241;1069;-45
2021/06/13 01:18:07;;;;;;;;;;;19.40;56.30;;;;;;491323;241;1321;-45
2021/06/13 01:20:08;;;;;;;;;;;19.40;56.20;;;;;;491790;241;1029;-45
2021/06/13 01:22:10;;;;;;;;;;;19.40;56.20;;;;;;491432;241;1502;-45
2021/06/13 01:24:11;;;;;;;;;;;19.40;56.20;;;;;;491345;241;1107;-45
2021/06/13 01:26:13;;;;;;;;;;;19.40;56.20;;;;;;491341;241;1200;-45
2021/06/13 01:28:14;;;;;;;;;;;19.40;56.10;;;;;;491351;241;1172;-45
2021/06/13 01:30:16;;;;;;;;;;;19.40;56.20;;;;;;491735;241;1044;-45
2021/06/13 01:32:16;;;;;;;;;;;19.40;56.20;;;;;;491251;241;1771;-45
2021/06/13 01:34:18;;;;;;;;;;;19.40;56.20;;;;;;491720;241;2185;-45
2021/06/13 01:36:19;;;;;;;;;;;19.40;56.20;;;;;;491513;241;1379;-45
2021/06/13 01:38:20;;;;;;;;;;;19.40;56.20;;;;;;491385;241;1049;-45
2021/06/13 01:40:22;;;;;;;;;;;19.40;56.20;;;;;;491376;241;1037;-45
2021/06/13 01:42:23;;;;;;;;;;;19.40;56.20;;;;;;491310;241;1156;-45
2021/06/13 01:44:24;;;;;;;;;;;19.40;56.20;;;;;;491814;241;1035;-45
2021/06/13 01:46:25;;;;;;;;;;;19.40;56.20;;;;;;491285;241;1047;-45
2021/06/13 01:48:27;;;;;;;;;;;19.40;56.20;;;;;;491760;241;1040;-45
2021/06/13 01:50:28;;;;;;;;;;;19.40;56.30;;;;;;491790;241;1078;-45
2021/06/13 01:52:29;;;;;;;;;;;19.40;56.20;;;;;;491566;241;1049;-45
2021/06/13 01:54:31;;;;;;;;;;;19.40;56.30;;;;;;491754;241;2179;-45
2021/06/13 01:56:32;;;;;;;;;;;19.40;56.30;;;;;;491252;241;1042;-45
2021/06/13 01:58:33;;;;;;;;;;;19.40;56.20;;;;;;491396;241;1115;-45
2021/06/13 02:00:34;;;;;;;;;;;19.40;56.10;;;;;;491347;241;1243;-45
2021/06/13 02:02:36;;;;;;;;;;;19.40;56.10;;;;;;491320;241;1110;-45
2021/06/13 02:04:37;;;;;;;;;;;19.40;56.30;;;;;;491820;241;1220;-45
2021/06/13 02:06:38;;;;;;;;;;;19.40;56.20;;;;;;491302;241;1066;-45
2021/06/13 02:08:40;;;;;;;;;;;19.40;56.20;;;;;;491333;241;1179;-45
2021/06/13 02:10:41;;;;;;;;;;;19.40;56.30;;;;;;491808;241;1249;-45
2021/06/13 02:12:42;;;;;;;;;;;19.50;56.20;;;;;;491590;241;1117;-45
2021/06/13 02:14:44;;;;;;;;;;;19.40;56.10;;;;;;491343;241;2192;-45
2021/06/13 02:16:45;;;;;;;;;;;19.40;56.20;;;;;;491281;241;1080;-45
2021/06/13 02:18:46;;;;;;;;;;;19.40;56.20;;;;;;491812;241;1124;-45
2021/06/13 02:20:48;;;;;;;;;;;19.40;56.30;;;;;;491751;241;1431;-45
2021/06/13 02:22:49;;;;;;;;;;;19.40;56.30;;;;;;491763;241;1183;-45
2021/06/13 02:24:50;;;;;;;;;;;19.30;56.30;;;;;;491692;241;1047;-45
2021/06/13 02:26:52;;;;;;;;;;;19.40;56.30;;;;;;491428;241;1213;-45
2021/06/13 02:28:54;;;;;;;;;;;19.40;56.30;;;;;;491407;241;1449;-45
2021/06/13 02:30:55;;;;;;;;;;;19.40;56.20;;;;;;491615;241;1260;-45
2021/06/13 02:32:56;;;;;;;;;;;19.40;56.30;;;;;;491325;241;1077;-45
2021/06/13 02:34:57;;;;;;;;;;;19.30;56.30;;;;;;491587;241;2129;-45
2021/06/13 02:36:59;;;;;;;;;;;19.40;56.30;;;;;;491421;241;1227;-45
2021/06/13 02:39:00;;;;;;;;;;;19.40;56.30;;;;;;491843;241;1078;-45
2021/06/13 02:41:01;;;;;;;;;;;19.40;56.30;;;;;;491475;241;1047;-45
2021/06/13 02:43:02;;;;;;;;;;;19.40;56.30;;;;;;491568;241;1199;-45
2021/06/13 02:45:04;;;;;;;;;;;19.40;56.30;;;;;;491381;241;1083;-45
2021/06/13 02:47:05;;;;;;;;;;;19.40;56.30;;;;;;491324;241;1099;-45
2021/06/13 02:49:06;;;;;;;;;;;19.40;56.30;;;;;;491647;241;1016;-45
2021/06/13 02:51:08;;;;;;;;;;;19.40;56.30;;;;;;491367;241;1031;-45
2021/06/13 02:53:09;;;;;;;;;;;19.40;56.40;;;;;;491851;241;1032;-45
2021/06/13 02:55:10;;;;;;;;;;;19.40;56.30;;;;;;491425;241;2193;-45
2021/06/13 02:57:11;;;;;;;;;;;19.40;56.30;;;;;;491465;241;1345;-44
2021/06/13 02:59:13;;;;;;;;;;;19.40;56.30;;;;;;491492;241;1164;-45
2021/06/13 03:01:14;;;;;;;;;;;19.40;56.30;;;;;;491321;241;1033;-45
2021/06/13 03:03:15;;;;;;;;;;;19.40;56.30;;;;;;491778;241;1073;-45
2021/06/13 03:05:16;;;;;;;;;;;19.40;56.30;;;;;;491396;241;945;-45
2021/06/13 03:07:18;;;;;;;;;;;19.40;56.40;;;;;;491765;241;1159;-44
2021/06/13 03:09:19;;;;;;;;;;;19.40;56.30;;;;;;491345;241;984;-45
2021/06/13 03:11:20;;;;;;;;;;;19.40;56.30;;;;;;491391;241;1174;-44
2021/06/13 03:13:22;;;;;;;;;;;19.40;56.40;;;;;;491684;241;1143;-45
2021/06/13 03:15:23;;;;;;;;;;;19.30;56.40;;;;;;491855;241;2180;-45
2021/06/13 03:17:24;;;;;;;;;;;19.30;56.40;;;;;;491304;241;1261;-45
2021/06/13 03:19:25;;;;;;;;;;;19.30;56.40;;;;;;491412;241;1036;-45
2021/06/13 03:21:27;;;;;;;;;;;19.40;56.40;;;;;;491357;241;1108;-45
2021/06/13 03:23:28;;;;;;;;;;;19.40;56.30;;;;;;491460;241;1230;-45
2021/06/13 03:25:29;;;;;;;;;;;19.40;56.30;;;;;;491816;241;1140;-45
2021/06/13 03:27:31;;;;;;;;;;;19.40;56.40;;;;;;491291;241;1090;-45
2021/06/13 03:29:32;;;;;;;;;;;19.40;56.40;;;;;;491434;241;1180;-45
2021/06/13 03:31:33;;;;;;;;;;;19.30;56.40;;;;;;491751;241;1153;-45
2021/06/13 03:33:34;;;;;;;;;;;19.30;56.40;;;;;;491788;241;1140;-45
2021/06/13 03:35:36;;;;;;;;;;;19.30;56.40;;;;;;491466;241;2192;-45
2021/06/13 03:37:37;;;;;;;;;;;19.30;56.40;;;;;;491338;241;1166;-45
2021/06/13 03:39:38;;;;;;;;;;;19.30;56.40;;;;;;491796;241;1208;-45
2021/06/13 03:41:40;;;;;;;;;;;19.30;56.40;;;;;;491645;241;1339;-45
2021/06/13 03:43:41;;;;;;;;;;;19.30;56.40;;;;;;491668;241;1136;-45
2021/06/13 03:45:42;;;;;;;;;;;19.30;56.40;;;;;;491823;241;1317;-45
2021/06/13 03:47:44;;;;;;;;;;;19.30;56.40;;;;;;491798;241;1189;-44
2021/06/13 03:49:45;;;;;;;;;;;19.40;56.40;;;;;;491807;241;1045;-45
2021/06/13 03:51:46;;;;;;;;;;;19.30;56.40;;;;;;491280;241;1201;-45
2021/06/13 03:53:48;;;;;;;;;;;19.30;56.40;;;;;;491830;241;1186;-45
2021/06/13 03:55:49;;;;;;;;;;;19.40;56.40;;;;;;491457;241;2144;-45
2021/06/13 03:57:51;;;;;;;;;;;19.40;56.30;;;;;;491319;241;1235;-45
2021/06/13 03:59:52;;;;;;;;;;;19.30;56.40;;;;;;491409;241;1166;-45
2021/06/13 04:01:53;;;;;;;;;;;19.40;56.40;;;;;;491309;241;1147;-44
2021/06/13 04:03:55;;;;;;;;;;;19.30;56.40;;;;;;491710;241;1092;-45
2021/06/13 04:05:56;;;;;;;;;;;19.40;56.40;;;;;;491386;241;1170;-45
2021/06/13 04:07:57;;;;;;;;;;;19.30;56.40;;;;;;491324;241;1048;-45
2021/06/13 04:09:59;;;;;;;;;;;19.30;56.40;;;;;;491822;241;1066;-45
2021/06/13 04:12:00;;;;;;;;;;;19.30;56.40;;;;;;491633;241;1313;-45
2021/06/13 04:14:01;;;;;;;;;;;19.40;56.40;;;;;;491669;241;1193;-45
2021/06/13 04:16:03;;;;;;;;;;;19.40;56.40;;;;;;491284;241;2169;-45
2021/06/13 04:18:04;;;;;;;;;;;19.30;56.40;;;;;;491376;241;1359;-45
2021/06/13 04:20:05;;;;;;;;;;;19.40;56.30;;;;;;491345;241;1060;-45
2021/06/13 04:22:07;;;;;;;;;;;19.40;56.40;;;;;;491345;241;1145;-45
2021/06/13 04:24:08;;;;;;;;;;;19.30;56.30;;;;;;491356;241;1029;-45
2021/06/13 04:26:09;;;;;;;;;;;19.40;56.40;;;;;;491274;241;1118;-45
2021/06/13 04:28:11;;;;;;;;;;;19.30;56.40;;;;;;491780;241;1103;-45
2021/06/13 04:30:12;;;;;;;;;;;19.40;56.40;;;;;;491410;241;1342;-45
2021/06/13 04:32:13;;;;;;;;;;;19.30;56.40;;;;;;491739;241;1328;-45
2021/06/13 04:34:15;;;;;;;;;;;19.30;56.40;;;;;;491354;241;1064;-45
2021/06/13 04:36:16;;;;;;;;;;;19.40;56.40;;;;;;491685;241;2113;-45
2021/06/13 04:38:17;;;;;;;;;;;19.40;56.40;;;;;;491814;241;1042;-45
2021/06/13 04:40:19;;;;;;;;;;;19.30;56.40;;;;;;491720;241;1060;-45
2021/06/13 04:42:20;;;;;;;;;;;19.30;56.50;;;;;;491334;241;1320;-45
2021/06/13 04:44:21;;;;;;;;;;;19.30;56.50;;;;;;491661;241;1126;-45
2021/06/13 04:46:26;;;;;;;;;;;19.30;56.50;;;;;;491303;241;1300;-45
2021/06/13 04:48:24;;;;;;;;;;;19.30;56.50;;;;;;491282;241;2134;-45
2021/06/13 04:50:25;;;;;;;;;;;19.30;56.50;;;;;;491819;241;1034;-45
2021/06/13 04:52:27;;;;;;;;;;;19.30;56.50;;;;;;491781;241;1211;-45
2021/06/13 04:54:28;;;;;;;;;;;19.30;56.50;;;;;;491804;241;1188;-45
2021/06/13 04:56:29;;;;;;;;;;;19.30;56.50;;;;;;491251;241;2200;-45
2021/06/13 04:58:31;;;;;;;;;;;19.30;56.50;;;;;;491638;241;1017;-45
2021/06/13 05:00:32;;;;;;;;;;;19.30;56.50;;;;;;491419;241;1700;-45
2021/06/13 05:02:33;;;;;;;;;;;19.30;56.50;;;;;;491338;241;1535;-45
2021/06/13 05:04:35;;;;;;;;;;;19.30;56.50;;;;;;491410;241;1081;-45
2021/06/13 05:06:36;;;;;;;;;;;19.30;56.50;;;;;;491378;241;1268;-45
2021/06/13 05:08:37;;;;;;;;;;;19.30;56.50;;;;;;491389;241;1021;-45
2021/06/13 05:10:39;;;;;;;;;;;19.30;56.50;;;;;;491342;241;1156;-45
2021/06/13 05:12:40;;;;;;;;;;;19.30;56.60;;;;;;491281;241;1219;-45
2021/06/13 05:14:41;;;;;;;;;;;19.30;56.50;;;;;;491689;241;1162;-45
2021/06/13 05:16:43;;;;;;;;;;;19.30;56.60;;;;;;491417;241;1264;-45
2021/06/13 05:18:44;;;;;;;;;;;19.30;56.70;;;;;;491828;241;1091;-45
2021/06/13 05:20:52;;;;;;;;;;;19.30;56.60;;;;;;491803;241;1116;-45
2021/06/13 05:22:46;;;;;;;;;;;19.30;56.50;;;;;;491224;241;2150;-45
2021/06/13 05:24:48;;;;;;;;;;;19.30;56.50;;;;;;491403;241;1066;-45
2021/06/13 05:26:49;;;;;;;;;;;19.30;56.60;;;;;;491745;240;1343;-44
2021/06/13 05:28:50;;;;;;;;;;;19.30;56.60;;;;;;491841;241;1078;-45
2021/06/13 05:30:52;;;;;;;;;;;19.30;56.60;;;;;;491360;241;1182;-45
2021/06/13 05:32:53;;;;;;;;;;;19.30;56.60;;;;;;491379;241;1211;-45
2021/06/13 05:34:54;;;;;;;;;;;19.30;56.60;;;;;;491321;241;2188;-45
2021/06/13 05:36:56;;;;;;;;;;;19.30;56.70;;;;;;491805;241;1386;-45
2021/06/13 05:38:57;;;;;;;;;;;19.30;56.60;;;;;;491804;241;1460;-44
2021/06/13 05:40:58;;;;;;;;;;;19.30;56.70;;;;;;491752;241;1301;-45
2021/06/13 05:43:00;;;;;;;;;;;19.30;56.60;;;;;;491353;241;1129;-44
2021/06/13 05:45:01;;;;;;;;;;;19.30;56.60;;;;;;491373;241;1169;-45
2021/06/13 05:47:02;;;;;;;;;;;19.30;56.50;;;;;;491662;241;1278;-45
2021/06/13 05:49:04;;;;;;;;;;;19.30;56.50;;;;;;491430;241;1034;-45
2021/06/13 05:51:05;;;;;;;;;;;19.30;56.60;;;;;;491252;241;1146;-45
2021/06/13 05:53:06;;;;;;;;;;;19.30;56.60;;;;;;491378;241;1055;-45
2021/06/13 05:55:08;;;;;;;;;;;19.30;56.60;;;;;;491343;241;2141;-45
2021/06/13 05:57:09;;;;;;;;;;;19.30;56.60;;;;;;491309;241;1109;-44
2021/06/13 05:59:10;;;;;;;;;;;19.30;56.60;;;;;;491380;241;1086;-45
2021/06/13 06:01:12;;;;;;;;;;;19.30;56.60;;;;;;491441;241;1162;-45
2021/06/13 06:03:13;;;;;;;;;;;19.30;56.60;;;;;;491322;241;1110;-45
2021/06/13 06:05:15;;;;;;;;;;;19.30;56.60;;;;;;491612;241;1121;-45
2021/06/13 06:07:16;;;;;;;;;;;19.30;56.60;;;;;;491410;241;1251;-45
2021/06/13 06:09:17;;;;;;;;;;;19.30;56.50;;;;;;491518;241;1083;-45
2021/06/13 06:11:19;;;;;;;;;;;19.30;56.50;;;;;;491691;241;1130;-45
2021/06/13 06:13:20;;;;;;;;;;;19.30;56.50;;;;;;491797;241;1065;-45
2021/06/13 06:15:21;;;;;;;;;;;19.30;56.50;;;;;;491640;241;2176;-45
2021/06/13 06:17:23;;;;;;;;;;;19.30;56.60;;;;;;491259;241;1204;-45
2021/06/13 06:19:24;;;;;;;;;;;19.30;56.60;;;;;;491638;241;1055;-45
2021/06/13 06:21:25;;;;;;;;;;;19.30;56.60;;;;;;491213;241;1246;-45
2021/06/13 06:23:27;;;;;;;;;;;19.30;56.50;;;;;;491428;241;1026;-45
2021/06/13 06:25:28;;;;;;;;;;;19.30;56.50;;;;;;491819;241;1037;-45
2021/06/13 06:27:29;;;;;;;;;;;19.30;56.50;;;;;;491776;241;1217;-45
2021/06/13 06:29:30;;;;;;;;;;;19.30;56.50;;;;;;491831;241;1049;-45
2021/06/13 06:31:32;;;;;;;;;;;19.30;56.50;;;;;;491315;241;1237;-45
2021/06/13 06:33:33;;;;;;;;;;;19.30;56.50;;;;;;491829;241;1032;-45
2021/06/13 06:35:35;;;;;;;;;;;19.30;56.50;;;;;;491290;241;2137;-45
2021/06/13 06:37:38;;;;;;;;;;;19.30;56.50;;;;;;491323;241;1274;-45
2021/06/13 06:39:37;;;;;;;;;;;19.30;56.70;;;;;;491337;241;2526;-45
2021/06/13 06:41:39;;;;;;;;;;;19.30;56.70;;;;;;491714;241;1265;-45
2021/06/13 06:43:40;;;;;;;;;;;19.30;56.60;;;;;;491373;241;1063;-45
2021/06/13 06:45:42;;;;;;;;;;;19.30;56.60;;;;;;491402;241;1182;-45
2021/06/13 06:47:43;;;;;;;;;;;19.30;56.70;;;;;;491395;241;1118;-45
2021/06/13 06:49:44;;;;;;;;;;;19.20;56.60;;;;;;491522;241;1040;-45
2021/06/13 06:51:46;;;;;;;;;;;19.30;56.70;;;;;;491306;241;1706;-45
2021/06/13 06:53:47;;;;;;;;;;;19.30;56.70;;;;;;491365;241;1049;-45
2021/06/13 06:55:48;;;;;;;;;;;19.30;56.60;;;;;;491739;241;2125;-45
2021/06/13 06:57:49;;;;;;;;;;;19.30;56.60;;;;;;491586;241;1103;-45
2021/06/13 06:59:51;;;;;;;;;;;19.30;56.60;;;;;;491831;241;1021;-45
2021/06/13 07:01:52;;;;;;;;;;;19.30;56.60;;;;;;491400;241;1280;-45
2021/06/13 07:03:53;;;;;;;;;;;19.30;56.50;;;;;;491849;241;1049;-45
2021/06/13 07:05:55;;;;;;;;;;;19.30;56.60;;;;;;491624;241;1545;-45
2021/06/13 07:07:56;;;;;;;;;;;19.30;56.60;;;;;;491638;241;1180;-44
2021/06/13 07:09:57;;;;;;;;;;;19.30;56.60;;;;;;491827;241;1055;-45
2021/06/13 07:11:59;;;;;;;;;;;19.30;56.70;;;;;;491566;241;1177;-45
2021/06/13 07:14:00;;;;;;;;;;;19.30;56.60;;;;;;491816;241;1087;-45
2021/06/13 07:16:01;;;;;;;;;;;19.30;56.60;;;;;;491549;241;2189;-45
2021/06/13 07:18:03;;;;;;;;;;;19.30;56.60;;;;;;491783;241;1133;-44
2021/06/13 07:20:04;;;;;;;;;;;19.30;56.60;;;;;;491797;241;1048;-45
2021/06/13 07:22:05;;;;;;;;;;;19.30;56.70;;;;;;491441;241;1211;-45
2021/06/13 07:24:07;;;;;;;;;;;19.30;56.70;;;;;;491388;241;1080;-45
2021/06/13 07:26:08;;;;;;;;;;;19.30;56.70;;;;;;491539;241;1293;-45
2021/06/13 07:28:09;;;;;;;;;;;19.30;56.70;;;;;;491483;241;1099;-45
2021/06/13 07:30:11;;;;;;;;;;;19.30;56.60;;;;;;491308;241;1130;-45
2021/06/13 07:32:12;;;;;;;;;;;19.30;56.70;;;;;;491397;241;1265;-45
2021/06/13 07:34:13;;;;;;;;;;;19.30;56.70;;;;;;491459;241;1214;-45
2021/06/13 07:36:15;;;;;;;;;;;19.20;56.70;;;;;;491657;241;2176;-45
2021/06/13 07:38:16;;;;;;;;;;;19.20;56.60;;;;;;491806;241;1058;-45
2021/06/13 07:40:18;;;;;;;;;;;19.20;56.70;;;;;;491604;241;1068;-45
2021/06/13 07:42:19;;;;;;;;;;;19.30;56.70;;;;;;491252;241;1809;-45
2021/06/13 07:44:20;;;;;;;;;;;19.30;56.70;;;;;;491354;241;1037;-45
2021/06/13 07:46:21;;;;;;;;;;;19.30;56.60;;;;;;491452;241;1215;-45
2021/06/13 07:48:22;;;;;;;;;;;19.30;56.50;;;;;;491344;241;1061;-45
2021/06/13 07:50:24;;;;;;;;;;;19.30;56.50;;;;;;491340;241;1076;-45
2021/06/13 07:52:25;;;;;;;;;;;19.30;56.50;;;;;;491314;241;1295;-45
2021/06/13 07:54:26;;;;;;;;;;;19.30;56.50;;;;;;491400;241;1066;-45
2021/06/13 07:56:28;;;;;;;;;;;19.20;56.50;;;;;;491606;241;2121;-45
2021/06/13 07:58:29;;;;;;;;;;;19.30;56.60;;;;;;491806;241;1103;-45
2021/06/13 08:00:30;;;;;;;;;;;19.30;56.60;;;;;;491784;241;1085;-45
2021/06/13 08:02:32;;;;;;;;;;;19.30;56.60;;;;;;491268;241;1268;-44
2021/06/13 08:04:35;;;;;;;;;;;19.30;56.50;;;;;;491372;241;1072;-45
2021/06/13 08:06:36;;;;;;;;;;;19.30;56.60;;;;;;491624;241;1326;-45
2021/06/13 08:08:37;;;;;;;;;;;19.30;56.60;;;;;;491800;241;1123;-45
2021/06/13 08:10:39;;;;;;;;;;;19.30;56.60;;;;;;491799;241;1088;-45
2021/06/13 08:12:40;;;;;;;;;;;19.30;56.60;;;;;;491512;241;1186;-45
2021/06/13 08:14:42;;;;;;;;;;;19.30;56.70;;;;;;491341;241;1054;-45
2021/06/13 08:16:43;;;;;;;;;;;19.20;56.60;;;;;;491441;241;2203;-45
2021/06/13 08:18:44;;;;;;;;;;;19.30;56.60;;;;;;491775;241;1119;-45
2021/06/13 08:20:46;;;;;;;;;;;19.30;56.60;;;;;;491728;241;1147;-45
2021/06/13 08:22:47;;;;;;;;;;;19.30;56.60;;;;;;491431;241;1255;-45
2021/06/13 08:24:48;;;;;;;;;;;19.30;56.60;;;;;;491828;241;1241;-45
2021/06/13 08:26:50;;;;;;;;;;;19.30;56.60;;;;;;491256;241;1217;-45
2021/06/13 08:28:51;;;;;;;;;;;19.30;56.50;;;;;;491321;241;1090;-45
2021/06/13 08:30:52;;;;;;;;;;;19.30;56.60;;;;;;491567;241;1157;-45
2021/06/13 08:32:54;;;;;;;;;;;19.30;56.60;;;;;;491329;241;1242;-45
2021/06/13 08:34:55;;;;;;;;;;;19.30;56.50;;;;;;491793;241;1045;-45
2021/06/13 08:36:56;;;;;;;;;;;19.30;56.60;;;;;;491222;241;2229;-45
2021/06/13 08:38:58;;;;;;;;;;;19.30;56.60;;;;;;491348;241;1538;-45
2021/06/13 08:40:59;;;;;;;;;;;19.30;56.70;;;;;;491305;241;1450;-45
2021/06/13 08:43:00;;;;;;;;;;;19.60;55.80;;;;;;491761;241;1055;-45
2021/06/13 08:45:02;;;;;;;;;;;19.90;54.90;;;;;;491808;241;1059;-45
2021/06/13 08:47:03;;;;;;;;;;;20.10;54.30;;;;;;491444;241;1236;-45
2021/06/13 08:49:04;;;;;;;;;;;20.20;53.80;;;;;;491787;241;1070;-45
2021/06/13 08:51:05;;;;;;;;;;;20.40;53.50;;;;;;491751;241;1139;-45
2021/06/13 08:53:07;;;;;;;;;;;20.50;53.30;;;;;;491386;241;1062;-45
2021/06/13 08:55:08;;;;;;;;;;;20.50;53.20;;;;;;491363;241;1085;-45
2021/06/13 08:57:10;;;;;;;;;;;20.60;53.00;;;;;;491254;241;2177;-45
2021/06/13 08:59:11;;;;;;;;;;;20.60;52.80;;;;;;491624;241;1065;-45
2021/06/13 09:01:13;;;;;;;;;;;20.70;52.80;;;;;;491768;241;1057;-45
2021/06/13 09:03:14;;;;;;;;;;;20.70;52.70;;;;;;491351;241;1467;-45
2021/06/13 09:05:18;;;;;;;;;;;20.70;52.50;;;;;;491822;241;1121;-45
2021/06/13 09:07:17;;;;;;;;;;;20.80;52.40;;;;;;491573;241;1453;-45
2021/06/13 09:09:18;;;;;;;;;;;20.80;52.30;;;;;;491775;241;1208;-45
2021/06/13 09:11:19;;;;;;;;;;;20.90;52.10;;;;;;491362;241;1100;-45
2021/06/13 09:13:23;;;;;;;;;;;20.90;52.10;;;;;;491716;241;1075;-45
2021/06/13 09:15:23;;;;;;;;;;;21.00;52.00;;;;;;491810;241;1872;-45
2021/06/13 09:17:25;;;;;;;;;;;21.00;52.00;;;;;;491493;241;2192;-45
2021/06/13 09:19:25;;;;;;;;;;;21.00;51.80;;;;;;491328;241;2250;-44
2021/06/13 09:21:27;;;;;;;;;;;21.00;51.80;;;;;;491542;241;1200;-45
2021/06/13 09:23:29;;;;;;;;;;;21.10;51.70;;;;;;491593;241;1064;-45
2021/06/13 09:25:29;;;;;;;;;;;21.10;51.70;;;;;;491578;241;1393;-45
2021/06/13 09:27:31;;;;;;;;;;;21.10;51.60;;;;;;491780;241;1185;-45
2021/06/13 09:29:32;;;;;;;;;;;21.20;51.70;;;;;;491449;241;1037;-45
2021/06/13 09:31:36;;;;;;;;;;;21.10;51.50;;;;;;491748;241;1478;-45
2021/06/13 09:33:35;;;;;;;;;;;21.20;51.60;;;;;;491424;241;2156;-45
2021/06/13 09:35:36;;;;;;;;;;;21.20;51.50;;;;;;491715;241;1075;-45
2021/06/13 09:37:37;;;;;;;;;;;21.20;51.50;;;;;;491700;241;2176;-45
2021/06/13 09:39:39;;;;;;;;;;;21.20;51.40;;;;;;491834;241;1089;-45
2021/06/13 09:41:40;;;;;;;;;;;21.30;51.40;;;;;;491496;241;1262;-45
2021/06/13 09:43:41;;;;;;;;;;;21.30;51.40;;;;;;491627;241;1066;-45
2021/06/13 09:45:43;;;;;;;;;;;21.30;51.40;;;;;;491725;241;1198;-45
2021/06/13 09:47:44;;;;;;;;;;;21.30;51.40;;;;;;491248;241;1281;-45
2021/06/13 09:49:45;;;;;;;;;;;21.30;51.30;;;;;;491806;241;1145;-45
2021/06/13 09:51:47;;;;;;;;;;;21.30;51.30;;;;;;491752;241;1202;-45
2021/06/13 09:53:49;;;;;;;;;;;21.30;51.30;;;;;;491797;241;1084;-45
2021/06/13 09:55:49;;;;;;;;;;;21.40;51.30;;;;;;491533;241;2505;-45
2021/06/13 09:57:51;;;;;;;;;;;21.30;51.20;;;;;;491802;241;2180;-45
2021/06/13 09:59:52;;;;;;;;;;;21.40;51.20;;;;;;491318;241;1128;-45
2021/06/13 10:01:53;;;;;;;;;;;21.40;51.20;;;;;;491712;241;1042;-45
2021/06/13 10:03:55;;;;;;;;;;;21.40;51.00;;;;;;491464;241;1166;-45
2021/06/13 10:05:56;;;;;;;;;;;21.50;51.10;;;;;;491352;241;1227;-45
2021/06/13 10:07:57;;;;;;;;;;;21.40;51.00;;;;;;491478;241;1059;-45
2021/06/13 10:09:59;;;;;;;;;;;21.50;51.00;;;;;;491638;241;1036;-45
2021/06/13 10:12:00;;;;;;;;;;;21.50;51.00;;;;;;491806;241;1041;-45
2021/06/13 10:14:02;;;;;;;;;;;21.50;51.00;;;;;;491360;241;1035;-45
2021/06/13 10:16:03;;;;;;;;;;;21.50;51.00;;;;;;491309;241;2062;-45
2021/06/13 10:18:04;;;;;;;;;;;21.50;51.00;;;;;;491490;241;2143;-45
2021/06/13 10:20:05;;;;;;;;;;;21.50;51.00;;;;;;491823;241;1050;-45
2021/06/13 10:22:07;;;;;;;;;;;21.50;50.90;;;;;;491696;241;1270;-45
2021/06/13 10:24:08;;;;;;;;;;;21.60;51.10;;;;;;491337;241;1063;-45
2021/06/13 10:26:10;;;;;;;;;;;21.60;51.00;;;;;;491734;241;1181;-45
2021/06/13 10:28:11;;;;;;;;;;;21.60;50.90;;;;;;491400;241;1093;-45
2021/06/13 10:30:12;;;;;;;;;;;21.60;50.90;;;;;;491797;241;1054;-45
2021/06/13 10:32:14;;;;;;;;;;;21.60;50.90;;;;;;491264;241;1181;-45
2021/06/13 10:34:15;;;;;;;;;;;21.60;50.90;;;;;;491462;241;2355;-45
2021/06/13 10:36:16;;;;;;;;;;;21.60;50.80;;;;;;491555;241;1159;-45
2021/06/13 10:38:18;;;;;;;;;;;21.70;50.90;;;;;;491574;241;2195;-45
2021/06/13 10:40:19;;;;;;;;;;;21.60;50.80;;;;;;491504;241;1031;-45
2021/06/13 10:42:20;;;;;;;;;;;21.60;50.80;;;;;;491263;241;1216;-45
2021/06/13 10:44:22;;;;;;;;;;;21.70;50.80;;;;;;491826;241;1072;-45
2021/06/13 10:46:23;;;;;;;;;;;21.70;50.80;;;;;;491587;241;1294;-45
2021/06/13 10:48:24;;;;;;;;;;;21.70;50.80;;;;;;491706;241;1172;-45
2021/06/13 10:50:26;;;;;;;;;;;21.70;50.70;;;;;;491812;241;1189;-45
2021/06/13 10:52:27;;;;;;;;;;;21.70;50.60;;;;;;491312;241;1319;-45
2021/06/13 10:54:28;;;;;;;;;;;21.80;50.70;;;;;;491761;241;1039;-45
2021/06/13 10:56:29;;;;;;;;;;;21.80;50.60;;;;;;491229;241;1345;-45
2021/06/13 10:58:31;;;;;;;;;;;21.80;50.60;;;;;;491281;241;2185;-45
2021/06/13 11:00:32;;;;;;;;;;;21.80;50.60;;;;;;491784;241;1140;-45
2021/06/13 11:02:34;;;;;;;;;;;21.80;50.60;;;;;;491452;241;1104;-45
2021/06/13 11:04:35;;;;;;;;;;;21.80;50.70;;;;;;491463;241;1184;-45
2021/06/13 11:06:36;;;;;;;;;;;21.80;50.60;;;;;;491341;241;1149;-45
2021/06/13 11:08:37;;;;;;;;;;;21.80;50.60;;;;;;491792;241;1110;-45
2021/06/13 11:10:39;;;;;;;;;;;21.80;50.60;;;;;;491377;241;1029;-45
2021/06/13 11:12:40;;;;;;;;;;;21.80;50.60;;;;;;491234;241;1205;-45
2021/06/13 11:14:41;;;;;;;;;;;21.80;50.60;;;;;;491331;241;1067;-45
2021/06/13 11:16:43;;;;;;;;;;;21.80;50.70;;;;;;491758;241;1460;-45
2021/06/13 11:18:45;;;;;;;;;;;21.80;50.60;;;;;;491413;241;2116;-45
2021/06/13 11:20:48;;;;;;;;;;;21.80;50.60;;;;;;491316;241;2330;-45
2021/06/13 11:22:48;;;;;;;;;;;21.80;50.60;;;;;;491649;241;2477;-45
2021/06/13 11:24:49;;;;;;;;;;;21.90;50.60;;;;;;491368;241;957;-45
2021/06/13 11:26:51;;;;;;;;;;;21.90;50.60;;;;;;491729;241;1455;-45
2021/06/13 11:28:52;;;;;;;;;;;21.90;50.60;;;;;;491835;241;1045;-45
2021/06/13 11:30:53;;;;;;;;;;;21.90;50.60;;;;;;491763;241;1257;-45
2021/06/13 11:32:56;;;;;;;;;;;21.90;50.50;;;;;;491644;241;1161;-45
2021/06/13 11:34:56;;;;;;;;;;;21.90;50.50;;;;;;491381;241;2630;-45
2021/06/13 11:36:57;;;;;;;;;;;22.00;50.50;;;;;;491433;241;1386;-45
2021/06/13 11:38:59;;;;;;;;;;;21.90;50.40;;;;;;491317;241;1057;-45
2021/06/13 11:41:00;;;;;;;;;;;22.00;50.50;;;;;;491309;241;1348;-45
2021/06/13 11:43:01;;;;;;;;;;;22.00;50.50;;;;;;491797;241;1188;-45
2021/06/13 11:45:03;;;;;;;;;;;22.00;50.50;;;;;;491520;241;1049;-45
2021/06/13 11:47:04;;;;;;;;;;;22.00;50.50;;;;;;491779;241;1337;-45
2021/06/13 11:49:05;;;;;;;;;;;22.00;50.50;;;;;;491688;241;1140;-45
2021/06/13 11:51:07;;;;;;;;;;;21.90;50.50;;;;;;491771;241;1423;-45
2021/06/13 11:53:11;;;;;;;;;;;22.00;50.50;;;;;;491330;241;1220;-45
2021/06/13 11:55:13;;;;;;;;;;;22.00;50.50;;;;;;491482;241;1086;-45
2021/06/13 11:57:14;;;;;;;;;;;22.10;50.20;;;;;;491323;241;2192;-45